Time;durP1;ratioP1;P1;durP2;ratioP2;P2;SDS_P1;SDS_P2;PMS_P1;PMS_P2;Temp;Humidity;BMP_temperature;BMP_pressure;BME280_temperature;BME280_humidity;BME280_pressure;Samples;Min_cycle;Max_cycle;Signal;HPM_P1;HPM_P2
2022/09/02 00:01:39;;;;;;;;;;;;;;;22.72;36.68;100571.91;4985638;28;6796;-74
2022/09/02 00:04:17;;;;;;;;;;;;;;;22.75;36.61;100577.13;4980278;28;6876;-73
2022/09/02 00:06:46;;;;;;;;;;;;;;;22.77;36.63;100564.94;4980881;28;6800;-74
2022/09/02 00:09:16;;;;;;;;;;;;;;;22.81;36.32;100566.69;4983083;28;6831;-74
2022/09/02 00:11:45;;;;;;;;;;;;;;;22.83;36.52;100567.56;4979886;28;6994;-74
2022/09/02 00:14:19;;;;;;;;;;;;;;;22.84;35.91;100558.84;4968248;28;6808;-74
2022/09/02 00:16:49;;;;;;;;;;;;;;;22.86;36.06;100570.16;4949539;28;6994;-75
2022/09/02 00:19:21;;;;;;;;;;;;;;;22.89;35.81;100559.72;4962319;28;7001;-74
2022/09/02 00:21:48;;;;;;;;;;;;;;;22.89;35.97;100559.72;4973317;28;6804;-75
2022/09/02 00:24:14;;;;;;;;;;;;;;;22.93;35.89;100559.72;4978297;28;7288;-74
2022/09/02 00:26:39;;;;;;;;;;;;;;;22.95;35.79;100557.97;4990223;28;6858;-74
2022/09/02 00:29:06;;;;;;;;;;;;;;;22.96;35.86;100559.72;4964993;28;6971;-74
2022/09/02 00:31:32;;;;;;;;;;;;;;;22.98;35.91;100553.63;4984320;28;6808;-74
2022/09/02 00:33:59;;;;;;;;;;;;;;;23.01;35.56;100555.34;4983537;28;6868;-74
2022/09/02 00:36:25;;;;;;;;;;;;;;;23.00;35.82;100546.63;4965831;28;7147;-74
2022/09/02 00:38:51;;;;;;;;;;;;;;;22.98;35.57;100553.63;4965034;28;6982;-74
2022/09/02 00:41:21;;;;;;;;;;;;;;;22.95;35.55;100548.41;4981501;28;6988;-74
2022/09/02 00:43:58;;;;;;;;;;;;;;;22.91;35.81;100551.00;4982998;28;6864;-74
2022/09/02 00:46:30;;;;;;;;;;;;;;;22.86;36.08;100549.25;4964884;28;6993;-74
2022/09/02 00:49:24;;;;;;;;;;;;;;;22.79;36.12;100554.50;4970085;28;7414;-74
2022/09/02 00:51:58;;;;;;;;;;;;;;;22.71;36.02;100550.13;4989653;28;6796;-74
2022/09/02 00:54:28;;;;;;;;;;;;;;;22.67;35.80;100545.78;4984677;28;7198;-74
2022/09/02 00:56:55;;;;;;;;;;;;;;;22.62;36.02;100544.91;4986986;28;6808;-74
2022/09/02 00:59:56;;;;;;;;;;;;;;;22.59;36.01;100540.53;4962310;28;7579;-74
2022/09/02 01:02:24;;;;;;;;;;;;;;;22.52;36.46;100536.22;4974936;28;7354;-74
2022/09/02 01:04:55;;;;;;;;;;;;;;;22.48;36.28;100537.91;4973571;28;7050;-74
2022/09/02 01:07:23;;;;;;;;;;;;;;;22.46;36.35;100538.78;4971129;28;6973;-74
2022/09/02 01:09:50;;;;;;;;;;;;;;;22.43;36.15;100544.84;4965383;28;6968;-74
2022/09/02 01:12:16;;;;;;;;;;;;;;;22.41;36.24;100540.53;4971046;28;6994;-74
2022/09/02 01:14:41;;;;;;;;;;;;;;;22.38;36.20;100535.28;4981393;28;6796;-74
2022/09/02 01:17:08;;;;;;;;;;;;;;;22.38;36.41;100540.50;4961869;28;6963;-74
2022/09/02 01:19:42;;;;;;;;;;;;;;;22.36;36.47;100537.91;4986896;28;6828;-74
2022/09/02 01:22:22;;;;;;;;;;;;;;;22.34;36.19;100545.72;4987207;28;7225;-75
2022/09/02 01:24:49;;;;;;;;;;;;;;;22.32;36.70;100542.25;4990415;28;7571;-74
2022/09/02 01:27:19;;;;;;;;;;;;;;;22.31;36.51;100544.84;4988793;28;7192;-74
2022/09/02 01:29:58;;;;;;;;;;;;;;;22.30;36.28;100533.53;4984698;28;6987;-74
2022/09/02 01:32:27;;;;;;;;;;;;;;;22.28;36.46;100539.63;4983656;28;6824;-74
2022/09/02 01:34:53;;;;;;;;;;;;;;;22.26;36.59;100539.63;4985015;28;6852;-74
2022/09/02 01:37:20;;;;;;;;;;;;;;;22.25;36.69;100534.38;4992708;28;6835;-74
2022/09/02 01:39:47;;;;;;;;;;;;;;;22.20;36.46;100527.44;4987114;28;6991;-74
2022/09/02 01:42:14;;;;;;;;;;;;;;;22.18;36.51;100533.50;4983992;28;6995;-74
2022/09/02 01:44:42;;;;;;;;;;;;;;;22.15;36.97;100528.28;4981891;28;6812;-74
2022/09/02 01:47:21;;;;;;;;;;;;;;;22.11;36.70;100531.75;4980430;28;7235;-74
2022/09/02 01:49:48;;;;;;;;;;;;;;;22.06;36.99;100534.34;4985127;28;7004;-74
2022/09/02 01:52:15;;;;;;;;;;;;;;;22.01;36.98;100536.94;4966602;28;6785;-74
2022/09/02 01:54:43;;;;;;;;;;;;;;;21.96;37.10;100530.84;4982841;28;7167;-74
2022/09/02 01:57:10;;;;;;;;;;;;;;;21.92;36.96;100531.69;4990702;28;7358;-74
2022/09/02 01:59:36;;;;;;;;;;;;;;;21.87;37.22;100531.69;4983968;28;6937;-74
2022/09/02 02:02:02;;;;;;;;;;;;;;;21.80;37.42;100532.53;4983714;28;6979;-74
2022/09/02 02:04:28;;;;;;;;;;;;;;;21.75;37.39;100526.44;4977685;28;6969;-74
2022/09/02 02:06:54;;;;;;;;;;;;;;;21.69;37.79;100529.03;4986431;28;7654;-74
2022/09/02 02:09:20;;;;;;;;;;;;;;;21.61;37.64;100529.81;4994932;28;6852;-74
2022/09/02 02:11:47;;;;;;;;;;;;;;;21.56;37.83;100535.88;4983985;28;6807;-74
2022/09/02 02:14:13;;;;;;;;;;;;;;;21.50;37.94;100529.78;4988833;28;6807;-74
2022/09/02 02:16:39;;;;;;;;;;;;;;;21.43;38.00;100530.59;4982988;28;8262;-74
2022/09/02 02:19:05;;;;;;;;;;;;;;;21.38;37.80;100532.31;4961205;28;7212;-74
2022/09/02 02:21:32;;;;;;;;;;;;;;;21.35;38.13;100534.91;4973100;28;7228;-74
2022/09/02 02:24:01;;;;;;;;;;;;;;;21.32;38.08;100533.16;4981073;28;6788;-74
2022/09/02 02:26:28;;;;;;;;;;;;;;;21.28;38.32;100527.91;4984728;28;6796;-74
2022/09/02 02:28:54;;;;;;;;;;;;;;;21.27;38.19;100542.66;4985429;28;7338;-74
2022/09/02 02:31:20;;;;;;;;;;;;;;;21.24;38.56;100532.25;4985130;28;6830;-74
2022/09/02 02:33:46;;;;;;;;;;;;;;;21.23;38.15;100533.97;4987101;28;6788;-74
2022/09/02 02:36:12;;;;;;;;;;;;;;;21.23;38.53;100535.72;4985653;28;6892;-74
2022/09/02 02:38:40;;;;;;;;;;;;;;;21.25;38.46;100533.13;4985282;28;6788;-74
2022/09/02 02:41:08;;;;;;;;;;;;;;;21.26;38.26;100532.25;4987737;28;7154;-74
2022/09/02 02:43:35;;;;;;;;;;;;;;;21.29;38.51;100535.72;4983270;28;6792;-74
2022/09/02 02:46:02;;;;;;;;;;;;;;;21.30;38.62;100532.28;4989105;28;7097;-74
2022/09/02 02:48:27;;;;;;;;;;;;;;;21.35;38.54;100527.09;4990308;28;6804;-74
2022/09/02 02:50:53;;;;;;;;;;;;;;;21.37;38.38;100530.59;4986148;28;6776;-75
2022/09/02 02:53:19;;;;;;;;;;;;;;;21.37;38.58;100528.81;4985542;28;7681;-75
2022/09/02 02:55:45;;;;;;;;;;;;;;;21.40;38.41;100527.13;4990744;28;7324;-74
2022/09/02 02:58:11;;;;;;;;;;;;;;;21.42;38.31;100526.25;4989292;28;7106;-74
2022/09/02 03:00:36;;;;;;;;;;;;;;;21.44;38.23;100529.75;4981264;28;6784;-74
2022/09/02 03:03:07;;;;;;;;;;;;;;;21.48;38.44;100525.41;4985809;28;7069;-74
2022/09/02 03:05:36;;;;;;;;;;;;;;;21.48;38.31;100523.69;4987473;28;6804;-74
2022/09/02 03:08:04;;;;;;;;;;;;;;;21.51;38.53;100520.22;4980223;28;6856;-74
2022/09/02 03:10:31;;;;;;;;;;;;;;;21.52;38.38;100521.97;4983736;28;6988;-74
2022/09/02 03:12:59;;;;;;;;;;;;;;;21.51;38.27;100520.22;4989177;28;6815;-75
2022/09/02 03:15:25;;;;;;;;;;;;;;;21.51;38.17;100521.06;4984326;28;6796;-74
2022/09/02 03:17:52;;;;;;;;;;;;;;;21.53;38.45;100522.81;4984986;28;6788;-74
2022/09/02 03:20:18;;;;;;;;;;;;;;;21.53;38.49;100520.22;4966390;28;6984;-74
2022/09/02 03:22:46;;;;;;;;;;;;;;;21.55;38.49;100524.56;4966689;28;7207;-74
2022/09/02 03:25:19;;;;;;;;;;;;;;;21.56;38.43;100520.25;4982258;28;6820;-74
2022/09/02 03:27:47;;;;;;;;;;;;;;;21.58;38.63;100518.50;4987090;28;6839;-74
2022/09/02 03:30:19;;;;;;;;;;;;;;;21.60;38.76;100519.38;4982602;28;6952;-74
2022/09/02 03:32:45;;;;;;;;;;;;;;;21.61;38.34;100516.78;4985369;28;7327;-75
2022/09/02 03:35:14;;;;;;;;;;;;;;;21.63;38.35;100519.38;4959532;28;6956;-74
2022/09/02 03:37:41;;;;;;;;;;;;;;;21.65;38.59;100517.69;4973917;28;9546;-74
2022/09/02 03:40:12;;;;;;;;;;;;;;;21.67;38.58;100517.66;4980775;28;6967;-75
2022/09/02 03:42:38;;;;;;;;;;;;;;;21.68;38.54;100512.50;4985847;28;6981;-74
2022/09/02 03:45:07;;;;;;;;;;;;;;;21.70;38.57;100515.97;4986382;28;6792;-74
2022/09/02 03:47:35;;;;;;;;;;;;;;;21.74;38.32;100516.88;4984312;28;7264;-74
2022/09/02 03:50:02;;;;;;;;;;;;;;;21.76;38.33;100507.28;4987153;28;6796;-74
2022/09/02 03:52:28;;;;;;;;;;;;;;;21.78;38.20;100514.28;4982042;28;7011;-74
2022/09/02 03:54:55;;;;;;;;;;;;;;;21.82;38.57;100504.72;4980179;28;7651;-74
2022/09/02 03:57:24;;;;;;;;;;;;;;;21.87;38.29;100512.56;4985875;28;7265;-74
2022/09/02 03:59:50;;;;;;;;;;;;;;;21.89;38.39;100505.59;4967584;28;7156;-74
2022/09/02 04:02:16;;;;;;;;;;;;;;;21.92;38.35;100503.00;4982703;28;6844;-74
2022/09/02 04:04:42;;;;;;;;;;;;;;;21.92;38.33;100500.38;4964055;28;6798;-75
2022/09/02 04:07:08;;;;;;;;;;;;;;;21.95;38.50;100500.41;4969813;28;8024;-75
2022/09/02 04:09:34;;;;;;;;;;;;;;;21.96;38.27;100496.94;4983469;28;6955;-75
2022/09/02 04:11:59;;;;;;;;;;;;;;;21.96;38.19;100502.16;4977567;28;6831;-74
2022/09/02 04:14:26;;;;;;;;;;;;;;;21.97;38.52;100493.44;4991194;28;7236;-74
2022/09/02 04:16:51;;;;;;;;;;;;;;;21.98;38.52;100494.34;4980809;28;7259;-74
2022/09/02 04:19:17;;;;;;;;;;;;;;;21.97;38.55;100496.06;4982805;28;6999;-74
2022/09/02 04:21:43;;;;;;;;;;;;;;;21.98;38.48;100496.94;4985510;28;7095;-74
2022/09/02 04:24:10;;;;;;;;;;;;;;;21.98;38.45;100500.41;4983547;28;9078;-75
2022/09/02 04:26:36;;;;;;;;;;;;;;;21.98;38.43;100495.19;4968293;28;6968;-74
2022/09/02 04:29:03;;;;;;;;;;;;;;;21.97;38.41;100496.06;4984616;28;8116;-74
2022/09/02 04:31:30;;;;;;;;;;;;;;;21.97;38.22;100497.78;4983001;28;7042;-74
2022/09/02 04:33:57;;;;;;;;;;;;;;;21.97;38.42;100503.88;4980324;28;7454;-74
2022/09/02 04:36:25;;;;;;;;;;;;;;;21.94;38.59;100490.84;4979708;28;7238;-74
2022/09/02 04:38:52;;;;;;;;;;;;;;;21.94;38.66;100487.34;4983637;28;6824;-74
2022/09/02 04:41:23;;;;;;;;;;;;;;;21.95;38.58;100491.69;4969681;28;6801;-74
2022/09/02 04:43:51;;;;;;;;;;;;;;;21.93;38.57;100499.53;4977894;28;6971;-74
2022/09/02 04:46:17;;;;;;;;;;;;;;;21.93;38.73;100486.50;4985703;28;7108;-75
2022/09/02 04:48:46;;;;;;;;;;;;;;;21.91;38.67;100494.31;4985392;28;6958;-74
2022/09/02 04:51:16;;;;;;;;;;;;;;;21.92;38.66;100484.72;4986805;28;7101;-74
2022/09/02 04:53:44;;;;;;;;;;;;;;;21.93;38.46;100491.72;4968122;28;7228;-74
2022/09/02 04:56:14;;;;;;;;;;;;;;;21.91;38.74;100488.22;4962290;28;7247;-74
2022/09/02 04:58:43;;;;;;;;;;;;;;;21.91;38.85;100483.00;4985503;28;6952;-74
2022/09/02 05:01:14;;;;;;;;;;;;;;;21.91;38.71;100488.22;4982678;28;7684;-75
2022/09/02 05:03:41;;;;;;;;;;;;;;;21.92;38.36;100485.63;4962368;28;6808;-74
2022/09/02 05:06:10;;;;;;;;;;;;;;;21.92;38.46;100490.84;4985089;28;6797;-74
2022/09/02 05:08:35;;;;;;;;;;;;;;;21.94;38.70;100492.56;4983201;28;7024;-75
2022/09/02 05:11:17;;;;;;;;;;;;;;;21.94;38.66;100488.25;4956513;28;7042;-76
2022/09/02 05:13:48;;;;;;;;;;;;;;;21.95;38.77;100483.88;4984932;28;6808;-76
2022/09/02 05:16:16;;;;;;;;;;;;;;;21.96;38.73;100488.22;4963539;28;6824;-76
2022/09/02 05:18:42;;;;;;;;;;;;;;;21.97;38.74;100485.63;4964157;28;6812;-74
2022/09/02 05:21:08;;;;;;;;;;;;;;;21.99;38.53;100483.88;4977344;28;6939;-75
2022/09/02 05:23:34;;;;;;;;;;;;;;;22.01;38.76;100484.75;4979715;28;7405;-75
2022/09/02 05:26:04;;;;;;;;;;;;;;;22.03;38.81;100483.03;4982593;28;6873;-74
2022/09/02 05:28:30;;;;;;;;;;;;;;;22.05;38.95;100485.63;4977592;28;6963;-75
2022/09/02 05:31:06;;;;;;;;;;;;;;;22.06;38.89;100483.03;4984208;28;6832;-75
2022/09/02 05:33:40;;;;;;;;;;;;;;;22.08;38.90;100487.38;4982879;28;7066;-76
2022/09/02 05:36:18;;;;;;;;;;;;;;;22.10;38.85;100488.25;4985463;28;6787;-76
2022/09/02 05:38:44;;;;;;;;;;;;;;;22.11;38.67;100487.38;4967384;28;7002;-75
2022/09/02 05:41:22;;;;;;;;;;;;;;;22.14;38.54;100484.78;4966365;28;6989;-75
2022/09/02 05:43:50;;;;;;;;;;;;;;;22.16;38.76;100488.28;4989672;28;7376;-75
2022/09/02 05:46:20;;;;;;;;;;;;;;;22.20;39.05;100479.56;4983028;28;6804;-75
2022/09/02 05:51:51;;;;;;;;;;;;;;;22.23;38.69;100481.31;4963166;28;6800;-75
2022/09/02 05:54:30;;;;;;;;;;;;;;;22.25;38.90;100482.19;4989366;28;6812;-75
2022/09/02 05:57:00;;;;;;;;;;;;;;;22.26;38.69;100479.56;4989209;28;6795;-75
2022/09/02 05:59:29;;;;;;;;;;;;;;;22.29;38.91;100481.31;4971541;28;6792;-75
2022/09/02 06:01:55;;;;;;;;;;;;;;;22.33;39.07;100477.84;4966864;28;7000;-74
2022/09/02 06:04:22;;;;;;;;;;;;;;;22.35;38.63;100478.69;4981480;28;8074;-75
2022/09/02 06:06:49;;;;;;;;;;;;;;;22.38;38.58;100480.44;4987906;28;6784;-76
2022/09/02 06:09:20;;;;;;;;;;;;;;;22.43;38.81;100481.34;4986709;28;6875;-75
2022/09/02 06:11:48;;;;;;;;;;;;;;;;;;4981612;28;6824;-75
2022/09/02 06:14:17;;;;;;;;;;;;;;;22.51;38.83;100479.63;4986050;28;6951;-75
2022/09/02 06:16:43;;;;;;;;;;;;;;;22.54;38.88;100477.00;4990940;28;6962;-75
2022/09/02 06:19:09;;;;;;;;;;;;;;;22.56;38.79;100484.84;4986300;28;6954;-75
2022/09/02 06:21:37;;;;;;;;;;;;;;;22.59;38.84;100480.47;4984553;28;6960;-75
2022/09/02 06:24:07;;;;;;;;;;;;;;;22.61;38.62;100475.25;4985770;28;6808;-75
2022/09/02 06:26:34;;;;;;;;;;;;;;;22.64;38.78;100474.41;4990036;28;6803;-75
2022/09/02 06:29:00;;;;;;;;;;;;;;;22.67;38.78;100474.38;4988126;28;6828;-75
2022/09/02 06:31:25;;;;;;;;;;;;;;;22.70;38.92;100469.19;4987281;28;6783;-75
2022/09/02 06:33:54;;;;;;;;;;;;;;;22.75;38.52;100473.53;4990718;28;6779;-75
2022/09/02 06:36:23;;;;;;;;;;;;;;;22.78;38.81;100471.78;4971152;28;7477;-75
2022/09/02 06:38:51;;;;;;;;;;;;;;;22.82;38.32;100478.72;4984152;28;7206;-75
2022/09/02 06:41:27;;;;;;;;;;;;;;;22.86;38.29;100470.03;4986103;28;6954;-75
2022/09/02 06:44:00;;;;;;;;;;;;;;;22.91;38.51;100478.69;4968969;28;6998;-75
2022/09/02 06:46:34;;;;;;;;;;;;;;;22.96;38.05;100473.47;4987576;28;7222;-75
2022/09/02 06:49:02;;;;;;;;;;;;;;;23.00;37.94;100476.06;4986159;28;6800;-75
2022/09/02 06:51:40;;;;;;;;;;;;;;;23.06;38.48;100469.09;4985989;28;6868;-75
2022/09/02 06:54:11;;;;;;;;;;;;;;;23.15;38.10;100477.78;4983738;28;7263;-75
2022/09/02 06:56:37;;;;;;;;;;;;;;;23.23;38.10;100472.53;4989052;28;7358;-75
2022/09/02 06:59:05;;;;;;;;;;;;;;;23.31;38.51;100469.94;4978929;28;7389;-75
2022/09/02 07:01:32;;;;;;;;;;;;;;;23.40;38.32;100476.84;4969395;28;7195;-75
2022/09/02 07:06:48;;;;;;;;;;;;;;;23.54;38.28;100464.59;4990714;28;6788;-75
2022/09/02 07:09:19;;;;;;;;;;;;;;;23.64;38.10;100470.63;4957909;28;7428;-75
2022/09/02 07:11:48;;;;;;;;;;;;;;;23.71;37.46;100472.34;4979306;28;7122;-75
2022/09/02 07:14:19;;;;;;;;;;;;;;;23.79;37.84;100459.22;4980596;28;6996;-75
2022/09/02 07:16:49;;;;;;;;;;;;;;;23.90;37.74;100459.16;4980330;28;7267;-75
2022/09/02 07:19:15;;;;;;;;;;;;;;;23.99;37.63;100456.50;4967269;28;6828;-75
2022/09/02 07:21:41;;;;;;;;;;;;;;;24.11;37.64;100452.06;4979479;28;6978;-76
2022/09/02 07:24:10;;;;;;;;;;;;;;;24.22;37.49;100446.75;4979122;28;6975;-74
2022/09/02 07:26:37;;;;;;;;;;;;;;;24.32;37.05;100452.78;4987892;28;6800;-75
2022/09/02 07:29:07;;;;;;;;;;;;;;;24.41;36.88;100448.34;4985924;28;6816;-75
2022/09/02 07:31:35;;;;;;;;;;;;;;;24.53;36.68;100443.88;4983251;28;7177;-75
2022/09/02 07:34:03;;;;;;;;;;;;;;;24.62;36.71;100446.41;4978951;28;7044;-75
2022/09/02 07:36:29;;;;;;;;;;;;;;;24.73;36.73;100451.56;4987352;28;6926;-75
2022/09/02 07:38:54;;;;;;;;;;;;;;;24.81;36.56;100454.97;4986015;28;7122;-75
2022/09/02 07:41:22;;;;;;;;;;;;;;;24.89;36.09;100443.53;4979734;28;6832;-75
2022/09/02 07:43:49;;;;;;;;;;;;;;;24.95;36.47;100441.72;4986634;28;6804;-75
2022/09/02 07:46:16;;;;;;;;;;;;;;;25.02;36.31;100447.78;4986897;28;6796;-75
2022/09/02 07:48:42;;;;;;;;;;;;;;;25.16;36.64;100447.63;4988164;28;6780;-75
2022/09/02 07:51:09;;;;;;;;;;;;;;;25.28;36.21;100446.59;4986161;28;6939;-74
2022/09/02 07:53:36;;;;;;;;;;;;;;;25.42;36.33;100445.56;4984193;28;7037;-75
2022/09/02 07:56:03;;;;;;;;;;;;;;;25.54;36.21;100442.81;4972351;28;7882;-75
2022/09/02 07:58:29;;;;;;;;;;;;;;;25.64;36.10;100436.53;4983326;28;6972;-75
2022/09/02 08:00:58;;;;;;;;;;;;;;;25.75;35.73;100440.75;4978513;28;6780;-75
2022/09/02 08:03:25;;;;;;;;;;;;;;;25.83;35.81;100444.16;4965469;28;7047;-75
2022/09/02 08:05:52;;;;;;;;;;;;;;;25.87;35.58;100444.97;4986897;28;7241;-75
2022/09/02 08:08:19;;;;;;;;;;;;;;;25.90;35.58;100444.91;4981879;28;7331;-75
2022/09/02 08:10:48;;;;;;;;;;;;;;;25.92;35.57;100427.38;4983798;28;7123;-75
2022/09/02 08:13:16;;;;;;;;;;;;;;;25.94;35.26;100433.50;4971226;28;7011;-74
2022/09/02 08:15:42;;;;;;;;;;;;;;;25.97;35.12;100429.94;4968475;28;6985;-76
2022/09/02 08:18:08;;;;;;;;;;;;;;;25.99;35.01;100428.19;4964388;28;7313;-75
2022/09/02 08:20:35;;;;;;;;;;;;;;;25.98;35.32;100431.66;4988807;28;6781;-75
2022/09/02 08:23:04;;;;;;;;;;;;;;;26.01;35.19;100431.63;4978452;28;6787;-75
2022/09/02 08:25:30;;;;;;;;;;;;;;;26.02;35.06;100430.75;4985296;28;6788;-75
2022/09/02 08:27:56;;;;;;;;;;;;;;;26.08;34.90;100428.03;4987557;28;6911;-74
2022/09/02 08:30:22;;;;;;;;;;;;;;;26.09;35.06;100429.75;4966161;28;6954;-75
2022/09/02 08:32:47;;;;;;;;;;;;;;;26.12;34.99;100424.44;4965703;28;8408;-75
2022/09/02 08:35:13;;;;;;;;;;;;;;;26.15;35.17;100424.38;4984753;28;7043;-75
2022/09/02 08:37:39;;;;;;;;;;;;;;;26.20;34.75;100417.34;4958215;28;7150;-75
2022/09/02 08:40:14;;;;;;;;;;;;;;;26.26;34.53;100421.63;4979961;28;7233;-75
2022/09/02 08:42:51;;;;;;;;;;;;;;;26.33;34.48;100425.88;4986324;28;6788;-75
2022/09/02 08:45:26;;;;;;;;;;;;;;;26.41;34.39;100430.13;4982887;28;6804;-76
2022/09/02 08:48:23;;;;;;;;;;;;;;;26.48;34.57;100427.38;4981879;28;6982;-75
2022/09/02 08:50:57;;;;;;;;;;;;;;;26.55;34.49;100429.88;4984929;28;7126;-75
2022/09/02 08:53:53;;;;;;;;;;;;;;;26.65;34.32;100422.69;4981085;28;7206;-75
2022/09/02 08:56:19;;;;;;;;;;;;;;;26.74;34.32;100422.53;4965193;28;7199;-75
2022/09/02 08:58:55;;;;;;;;;;;;;;;26.83;34.27;100414.47;4984258;28;6788;-76
2022/09/02 09:02:01;;;;;;;;;;;;;;;26.90;33.90;100420.50;4984380;28;6908;-75
2022/09/02 09:05:38;;;;;;;;;;;;;;;26.96;33.90;100420.38;4969783;28;7008;-76
2022/09/02 09:08:12;;;;;;;;;;;;;;;27.03;33.71;100427.22;4902215;29;7445;-75
2022/09/02 09:10:37;;;;;;;;;;;;;;;27.12;33.65;100412.16;4887373;29;6995;-75
2022/09/02 09:13:31;;;;;;;;;;;;;;;27.22;33.40;100403.19;4949881;28;7222;-75
2022/09/02 09:16:35;;;;;;;;;;;;;;;27.29;33.36;100406.56;4986230;28;6828;-74
2022/09/02 09:19:54;;;;;;;;;;;;;;;27.39;33.25;100400.22;4981713;28;7137;-74
2022/09/02 09:22:32;;;;;;;;;;;;;;;27.49;32.63;100395.59;4978895;28;6812;-75
2022/09/02 09:24:58;;;;;;;;;;;;;;;27.56;32.67;100402.47;4983645;28;6812;-75
2022/09/02 09:27:24;;;;;;;;;;;;;;;27.64;32.81;100389.13;4984526;28;6883;-75
2022/09/02 09:29:51;;;;;;;;;;;;;;;27.74;32.30;100392.44;4989832;28;7165;-75
2022/09/02 09:32:38;;;;;;;;;;;;;;;27.86;32.49;100401.78;4984060;28;6871;-74
2022/09/02 09:35:10;;;;;;;;;;;;;;;27.97;32.49;100394.50;4982713;28;8833;-75
2022/09/02 09:37:48;;;;;;;;;;;;;;;28.08;31.83;100393.38;4974791;28;7316;-75
2022/09/02 09:40:24;;;;;;;;;;;;;;;28.22;31.71;100398.31;4987885;28;6966;-75
2022/09/02 09:43:01;;;;;;;;;;;;;;;28.38;31.73;100391.72;4983163;28;6819;-74
2022/09/02 09:45:48;;;;;;;;;;;;;;;28.71;31.91;100390.00;4988676;28;6792;-75
2022/09/02 09:48:17;;;;;;;;;;;;;;;29.26;31.48;100384.91;4987154;28;6978;-75
2022/09/02 09:51:11;;;;;;;;;;;;;;;30.01;31.13;100385.25;4978112;28;6804;-75
2022/09/02 09:53:38;;;;;;;;;;;;;;;31.13;29.63;100379.53;4981133;28;6864;-75
2022/09/02 09:56:26;;;;;;;;;;;;;;;32.24;28.42;100368.03;4970615;28;7222;-76
2022/09/02 09:58:52;;;;;;;;;;;;;;;33.22;27.54;100374.31;4985794;28;6955;-75
2022/09/02 10:01:31;;;;;;;;;;;;;;;34.14;26.85;100364.56;4963674;28;7032;-74
2022/09/02 10:04:08;;;;;;;;;;;;;;;35.03;25.73;100366.06;4977429;28;6808;-74
2022/09/02 10:06:43;;;;;;;;;;;;;;;35.82;24.16;100347.44;4967665;28;7274;-73
2022/09/02 10:09:17;;;;;;;;;;;;;;;36.46;23.39;100345.44;4985557;28;7189;-73
2022/09/02 10:12:10;;;;;;;;;;;;;;;37.15;23.45;100347.41;4988509;28;6816;-73
2022/09/02 10:14:44;;;;;;;;;;;;;;;37.74;22.49;100344.41;4965971;28;7098;-74
2022/09/02 10:18:05;;;;;;;;;;;;;;;38.20;22.10;100348.44;4970388;28;7058;-73
2022/09/02 10:21:06;;;;;;;;;;;;;;;38.60;20.80;100347.47;4991301;28;8185;-74
2022/09/02 10:23:58;;;;;;;;;;;;;;;38.99;19.99;100339.38;4985977;28;6920;-74
2022/09/02 10:26:49;;;;;;;;;;;;;;;39.40;19.58;100331.03;4984547;28;6831;-75
2022/09/02 10:30:07;;;;;;;;;;;;;;;39.92;19.23;100326.25;4985393;28;6816;-74
2022/09/02 10:32:49;;;;;;;;;;;;;;;40.31;18.50;100330.41;4991512;28;8151;-74
2022/09/02 10:35:47;;;;;;;;;;;;;;;40.42;18.35;100327.75;4990313;28;7161;-74
2022/09/02 10:38:36;;;;;;;;;;;;;;;40.53;17.79;100311.63;4979869;28;6859;-74
2022/09/02 10:41:13;;;;;;;;;;;;;;;40.60;17.42;100319.19;4989992;28;6831;-74
2022/09/02 10:43:58;;;;;;;;;;;;;;;40.69;17.35;100313.91;4986925;28;6800;-74
2022/09/02 10:46:25;;;;;;;;;;;;;;;40.72;17.23;100310.13;4972140;28;6987;-74
2022/09/02 10:49:18;;;;;;;;;;;;;;;40.80;16.79;100309.53;4973243;28;6979;-74
2022/09/02 10:52:04;;;;;;;;;;;;;;;40.86;16.55;100306.34;4984662;28;6803;-74
2022/09/02 10:54:48;;;;;;;;;;;;;;;40.98;16.54;100307.19;4970550;28;7101;-74
2022/09/02 10:57:58;;;;;;;;;;;;;;;41.08;16.65;100293.81;4989381;28;6816;-74
2022/09/02 11:00:28;;;;;;;;;;;;;;;41.18;16.49;100296.59;4969519;28;6820;-74
2022/09/02 11:03:24;;;;;;;;;;;;;;;41.21;15.75;100291.00;4984038;28;7317;-74
2022/09/02 11:06:08;;;;;;;;;;;;;;;41.19;15.79;100287.56;4984577;28;6796;-74
2022/09/02 11:08:47;;;;;;;;;;;;;;;41.17;16.18;100279.59;4968342;28;7416;-73
2022/09/02 11:11:30;;;;;;;;;;;;;;;41.28;15.65;100278.75;4986123;28;6964;-74
2022/09/02 11:14:21;;;;;;;;;;;;;;;41.42;16.12;100282.94;4988684;28;7174;-74
2022/09/02 11:16:54;;;;;;;;;;;;;;;41.66;15.87;100279.16;4987130;28;7016;-74
2022/09/02 11:19:41;;;;;;;;;;;;;;;41.83;15.49;100274.16;4982514;28;7193;-74
2022/09/02 11:22:39;;;;;;;;;;;;;;;42.01;15.26;100266.31;4980828;28;6815;-74
2022/09/02 11:25:11;;;;;;;;;;;;;;;42.29;15.23;100263.88;4972379;28;6816;-73
2022/09/02 11:28:22;;;;;;;;;;;;;;;42.48;14.90;100269.31;4988740;28;7110;-73
2022/09/02 11:31:17;;;;;;;;;;;;;;;42.60;15.23;100253.94;4984355;28;6992;-73
2022/09/02 11:33:56;;;;;;;;;;;;;;;42.74;14.96;100260.75;4986169;28;6796;-73
2022/09/02 11:36:25;;;;;;;;;;;;;;;42.78;14.66;100260.47;4981131;28;6808;-73
2022/09/02 11:39:07;;;;;;;;;;;;;;;42.86;14.29;100255.22;4988274;28;7310;-73
2022/09/02 11:41:50;;;;;;;;;;;;;;;42.94;14.16;100252.72;4971076;28;7038;-74
2022/09/02 11:45:04;;;;;;;;;;;;;;;42.91;13.77;100250.28;4963594;28;7641;-74
2022/09/02 11:47:52;;;;;;;;;;;;;;;42.58;14.08;100250.53;4981403;28;7066;-75
2022/09/02 11:50:48;;;;;;;;;;;;;;;42.17;14.10;100245.16;4984909;28;6892;-75
2022/09/02 11:53:36;;;;;;;;;;;;;;;41.90;14.02;100238.50;4963531;28;7485;-73
2022/09/02 11:56:19;;;;;;;;;;;;;;;41.68;14.39;100249.44;4984322;28;6812;-73
2022/09/02 11:58:51;;;;;;;;;;;;;;;41.64;14.55;100243.47;4981104;28;6871;-73
2022/09/02 12:01:28;;;;;;;;;;;;;;;41.72;14.66;100237.44;4971185;28;6990;-74
2022/09/02 12:04:25;;;;;;;;;;;;;;;41.87;13.87;100238.78;4982189;28;6820;-73
2022/09/02 12:07:11;;;;;;;;;;;;;;;41.89;13.99;100235.97;4970781;28;7349;-73
2022/09/02 12:09:49;;;;;;;;;;;;;;;41.96;14.17;100238.97;4983292;28;7584;-74
2022/09/02 12:12:37;;;;;;;;;;;;;;;42.12;14.28;100228.59;4981015;28;6892;-74
2022/09/02 12:15:06;;;;;;;;;;;;;;;42.22;13.88;100228.59;4983476;28;6986;-74
2022/09/02 12:18:10;;;;;;;;;;;;;;;42.37;13.97;100229.06;4985022;28;6931;-73
2022/09/02 12:20:37;;;;;;;;;;;;;;;42.49;13.67;100229.78;4972214;28;6808;-74
2022/09/02 12:23:04;;;;;;;;;;;;;;;42.45;13.43;100223.00;4985337;28;6836;-74
2022/09/02 12:25:32;;;;;;;;;;;;;;;42.24;13.65;100223.91;4976468;28;6816;-74
2022/09/02 12:28:24;;;;;;;;;;;;;;;42.01;13.80;100224.13;4981255;28;6816;-73
2022/09/02 12:31:01;;;;;;;;;;;;;;;41.70;13.54;100218.75;4984918;28;6820;-74
2022/09/02 12:33:35;;;;;;;;;;;;;;;41.56;13.52;100214.56;4964032;28;7015;-74
2022/09/02 12:36:03;;;;;;;;;;;;;;;41.68;13.60;100207.28;4981395;28;6832;-74
2022/09/02 12:38:39;;;;;;;;;;;;;;;41.89;13.65;100209.91;4980470;28;6872;-74
2022/09/02 12:41:04;;;;;;;;;;;;;;;42.12;13.58;100215.13;4986744;28;7111;-74
2022/09/02 12:43:59;;;;;;;;;;;;;;;42.20;13.43;100207.19;4984628;28;7386;-74
2022/09/02 12:46:43;;;;;;;;;;;;;;;41.84;13.33;100205.91;4976667;28;6835;-73
2022/09/02 12:49:15;;;;;;;;;;;;;;;41.50;13.41;100217.75;4982539;28;7099;-73
2022/09/02 12:51:52;;;;;;;;;;;;;;;41.32;13.41;100204.91;4968117;28;7013;-75
2022/09/02 12:54:33;;;;;;;;;;;;;;;41.11;13.63;100202.22;4987324;28;7071;-75
2022/09/02 12:57:00;;;;;;;;;;;;;;;40.96;13.70;100212.44;4972655;28;7002;-74
2022/09/02 12:59:32;;;;;;;;;;;;;;;40.94;13.77;100198.25;4976525;28;7526;-74
2022/09/02 13:02:33;;;;;;;;;;;;;;;40.65;13.54;100204.19;4984075;28;6792;-74
2022/09/02 13:05:32;;;;;;;;;;;;;;;39.79;13.86;100202.94;4968118;28;6828;-74
2022/09/02 13:08:07;;;;;;;;;;;;;;;38.78;14.46;100202.50;4966116;28;7132;-74
2022/09/02 13:11:16;;;;;;;;;;;;;;;38.10;15.20;100202.94;4987420;28;6919;-73
2022/09/02 13:14:36;;;;;;;;;;;;;;;38.03;15.46;100197.16;4986665;28;7268;-74
2022/09/02 13:17:20;;;;;;;;;;;;;;;38.28;15.62;100187.38;4986920;28;7041;-73
2022/09/02 13:20:13;;;;;;;;;;;;;;;38.43;15.09;100181.84;4963319;28;7194;-72
2022/09/02 13:23:18;;;;;;;;;;;;;;;38.70;15.39;100180.81;4986944;28;6852;-73
2022/09/02 13:26:11;;;;;;;;;;;;;;;39.01;15.30;100184.75;4986893;28;7221;-73
2022/09/02 13:29:20;;;;;;;;;;;;;;;39.13;14.97;100171.38;4987918;28;6816;-73